createdAt,value
2022-09-04T00:00:17.816Z,0
2022-09-04T00:05:08.703Z,2.35
2022-09-04T00:10:08.545Z,2.10
2022-09-04T00:15:08.232Z,1.80
2022-09-04T00:20:07.933Z,1.98
2022-09-04T00:25:08.617Z,1.58
2022-09-04T00:30:08.294Z,1.70
2022-09-04T00:35:08.008Z,1.90
2022-09-04T00:40:07.684Z,1.77
2022-09-04T00:45:09.863Z,1.55
2022-09-04T00:50:08.292Z,2.15
2022-09-04T00:55:08.057Z,2.05
2022-09-04T01:00:07.753Z,1.92
2022-09-04T01:05:08.433Z,1.95
2022-09-04T01:10:07.649Z,2.15
2022-09-04T01:15:08.359Z,1.77
2022-09-04T01:20:08.076Z,2.00
2022-09-04T01:25:07.771Z,1.92
2022-09-04T01:30:08.463Z,2.60
2022-09-04T01:35:08.163Z,2.20
2022-09-04T01:40:07.879Z,2.05
2022-09-04T01:45:08.582Z,2.47
2022-09-04T01:50:08.297Z,2.08
2022-09-04T01:55:08.011Z,2.55
2022-09-04T02:00:07.732Z,2.30
2022-09-04T02:05:08.685Z,2.13
2022-09-04T02:10:08.455Z,2.00
2022-09-04T02:15:08.164Z,2.20
2022-09-04T02:20:17.909Z,0
2022-09-04T02:25:08.568Z,2.50
2022-09-04T02:30:08.247Z,2.60
2022-09-04T02:35:07.949Z,2.63
2022-09-04T02:40:07.653Z,2.30
2022-09-04T02:45:08.340Z,2.53
2022-09-04T02:50:08.044Z,2.72
2022-09-04T02:55:07.759Z,2.67
2022-09-04T03:00:08.492Z,2.67
2022-09-04T03:05:08.217Z,2.55
2022-09-04T03:10:07.931Z,2.65
2022-09-04T03:15:18.651Z,0
2022-09-04T03:20:08.384Z,3.03
2022-09-04T03:25:08.071Z,2.75
2022-09-04T03:30:07.789Z,2.65
2022-09-04T03:35:08.479Z,3.20
2022-09-04T03:40:18.156Z,0
2022-09-04T03:45:07.840Z,2.92
2022-09-04T03:50:08.524Z,3.03
2022-09-04T03:55:08.242Z,2.25
2022-09-04T04:00:07.937Z,2.80
2022-09-04T04:05:02.868Z,2.75
2022-09-04T04:10:02.799Z,2.78
2022-09-04T04:15:02.635Z,3.20
2022-09-04T04:20:02.608Z,3.08
2022-09-04T04:25:02.483Z,2.90
2022-09-04T04:30:02.417Z,2.67
2022-09-04T04:35:02.305Z,3.20
2022-09-04T04:40:02.174Z,3.05
2022-09-04T04:45:12.000Z,0
2022-09-04T04:50:01.827Z,2.88
2022-09-04T04:55:02.584Z,3.13
2022-09-04T05:00:02.366Z,2.90
2022-09-04T05:05:02.130Z,2.63
2022-09-04T05:10:01.863Z,2.75
2022-09-04T05:15:02.612Z,2.90
2022-09-04T05:20:02.458Z,3.08
2022-09-04T05:25:02.177Z,3.60
2022-09-04T05:30:01.917Z,2.92
2022-09-04T05:35:02.650Z,3.38
2022-09-04T05:40:02.234Z,3.00
2022-09-04T05:45:02.057Z,3.35
2022-09-04T05:50:01.831Z,3.03
2022-09-04T05:55:12.673Z,0
2022-09-04T06:00:02.594Z,3.15
2022-09-04T06:05:02.353Z,3.30
2022-09-04T06:10:02.073Z,3.53
2022-09-04T06:15:01.800Z,3.70
2022-09-04T06:20:02.662Z,3.22
2022-09-04T06:25:02.481Z,3.60
2022-09-04T06:30:04.313Z,3.63
2022-09-04T06:35:02.365Z,4.00
2022-09-04T06:40:02.244Z,4.03
2022-09-04T06:45:02.128Z,4.13
2022-09-04T06:50:01.714Z,4.53
2022-09-04T06:55:02.576Z,4.30
2022-09-04T07:00:02.702Z,5.35
2022-09-04T07:05:02.621Z,5.75
2022-09-04T07:10:03.530Z,5.05
2022-09-04T07:15:01.998Z,4.40
2022-09-04T07:20:01.843Z,4.38
2022-09-04T07:25:02.572Z,3.08
2022-09-04T07:30:09.087Z,3.58
2022-09-04T07:35:01.934Z,3.72
2022-09-04T07:40:01.821Z,4.00
2022-09-04T07:45:02.704Z,4.97
2022-09-04T07:50:02.526Z,4.18
2022-09-04T07:55:02.259Z,4.10
2022-09-04T08:00:01.993Z,3.58
2022-09-04T08:05:01.766Z,4.10
2022-09-04T08:10:02.372Z,3.85
2022-09-04T08:15:02.107Z,3.65
2022-09-04T08:20:01.829Z,4.30
2022-09-04T08:25:12.560Z,0
2022-09-04T08:30:02.300Z,4.25
2022-09-04T08:35:02.012Z,3.58
2022-09-04T08:40:01.861Z,3.30
2022-09-04T08:45:02.619Z,3.78
2022-09-04T08:50:07.385Z,3.67
2022-09-04T08:55:02.159Z,3.70
2022-09-04T09:00:01.912Z,3.55
2022-09-04T09:05:02.623Z,3.67
2022-09-04T09:10:08.943Z,2.90
2022-09-04T09:15:02.794Z,2.72
2022-09-04T09:20:02.823Z,2.47
2022-09-04T09:25:02.771Z,2.58
2022-09-04T09:30:02.585Z,2.53
2022-09-04T09:35:02.437Z,2.30
2022-09-04T09:40:02.699Z,2.15
2022-09-04T09:45:02.614Z,2.00
2022-09-04T09:50:02.535Z,2.10
2022-09-04T09:55:02.469Z,1.65
2022-09-04T10:00:02.297Z,1.80
2022-09-04T10:05:12.074Z,0
2022-09-04T10:10:01.869Z,1.70
2022-09-04T10:15:02.697Z,1.80
2022-09-04T10:20:02.514Z,1.40
2022-09-04T10:25:12.333Z,0
2022-09-04T10:30:02.484Z,1.40
2022-09-04T10:35:02.329Z,1.70
2022-09-04T10:40:04.291Z,1.40
2022-09-04T10:45:02.171Z,1.70
2022-09-04T10:50:02.020Z,1.95
2022-09-04T10:55:01.734Z,1.52
2022-09-04T11:00:05.993Z,2.00
2022-09-04T11:05:01.861Z,1.50
2022-09-04T11:10:02.660Z,1.50
2022-09-04T11:15:02.371Z,1.65
2022-09-04T11:20:16.167Z,0
2022-09-04T11:25:02.147Z,1.73
2022-09-04T11:30:02.568Z,1.25
2022-09-04T11:35:05.584Z,1.67
2022-09-04T11:40:02.440Z,1.30
2022-09-04T11:45:02.177Z,1.65
2022-09-04T11:50:02.005Z,1.67
2022-09-04T11:55:02.429Z,1.20
2022-09-04T12:00:02.270Z,1.45
2022-09-04T12:05:02.196Z,1.70
2022-09-04T12:10:02.133Z,1.70
2022-09-04T12:15:02.104Z,1.40
2022-09-04T12:20:08.034Z,1.60
2022-09-04T12:25:02.165Z,1.40
2022-09-04T12:30:02.058Z,1.48
2022-09-04T12:35:02.014Z,1.58
2022-09-04T12:40:01.939Z,0.93
2022-09-04T12:45:11.929Z,0
2022-09-04T12:50:02.708Z,1.30
2022-09-04T12:55:02.522Z,1.40
2022-09-04T13:00:02.357Z,1.35
2022-09-04T13:05:02.331Z,1.10
2022-09-04T13:10:05.251Z,1.23
2022-09-04T13:15:02.047Z,1.10
2022-09-04T13:20:01.806Z,1.10
2022-09-04T13:25:02.536Z,1.00
2022-09-04T13:30:04.582Z,1.27
2022-09-04T13:35:02.404Z,1.50
2022-09-04T13:40:02.242Z,1.20
2022-09-04T13:45:02.180Z,1.10
2022-09-04T13:50:02.018Z,1.10
2022-09-04T13:55:11.722Z,0
2022-09-04T14:00:02.485Z,0.98
2022-09-04T14:05:02.296Z,0.98
2022-09-04T14:10:02.028Z,0.90
2022-09-04T14:15:01.737Z,0.90
2022-09-04T14:20:02.492Z,0.88
2022-09-04T14:25:06.667Z,0.90
2022-09-04T14:30:11.927Z,0.90
2022-09-04T14:35:02.931Z,0.70
2022-09-04T14:40:02.806Z,1.00
2022-09-04T14:45:02.682Z,0.90
2022-09-04T14:50:02.529Z,0.85
2022-09-04T14:55:02.366Z,0.93
2022-09-04T15:00:12.151Z,0
2022-09-04T15:05:02.112Z,0.70
2022-09-04T15:10:02.058Z,0.63
2022-09-04T15:15:01.933Z,0.80
2022-09-04T15:20:02.876Z,0.60
2022-09-04T15:25:01.930Z,0.90
2022-09-04T15:30:12.629Z,0
2022-09-04T15:35:02.703Z,0.60
2022-09-04T15:40:02.695Z,0.57
2022-09-04T15:45:02.653Z,0.90
2022-09-04T15:50:02.601Z,0.93
2022-09-04T15:55:02.427Z,0.70
2022-09-04T16:00:02.250Z,0.90
2022-09-04T16:05:04.651Z,0.70
2022-09-04T16:10:02.528Z,0.70
2022-09-04T16:15:02.353Z,0.90
2022-09-04T16:20:02.072Z,0.75
2022-09-04T16:25:01.808Z,0.77
2022-09-04T16:30:01.923Z,0.80
2022-09-04T16:35:02.692Z,0.80
2022-09-04T16:40:02.637Z,1.13
2022-09-04T16:45:02.450Z,1.20
2022-09-04T16:50:12.174Z,0
2022-09-04T16:55:01.907Z,1.25
2022-09-04T17:00:02.620Z,1.02
2022-09-04T17:05:02.368Z,0.93
2022-09-04T17:10:02.113Z,0.98
2022-09-04T17:15:01.831Z,0.93
2022-09-04T17:20:02.745Z,0.90
2022-09-04T17:28:59.892Z,1.02
2022-09-04T17:30:02.365Z,0.88
2022-09-04T17:40:33.268Z,0.80
2022-09-04T17:40:49.875Z,1.10
2022-09-04T17:45:02.861Z,0.90
2022-09-04T17:50:03.009Z,1.20
2022-09-04T17:55:11.786Z,0
2022-09-04T18:00:02.553Z,1.00
2022-09-04T18:05:02.358Z,1.30
2022-09-04T18:10:02.212Z,0.93
2022-09-04T18:15:33.203Z,1.10
2022-09-04T18:20:02.470Z,1.20
2022-09-04T18:25:16.061Z,1.27
2022-09-04T18:34:29.594Z,1.10
2022-09-04T18:37:24.546Z,1.20
2022-09-04T18:40:02.151Z,1.60
2022-09-04T18:50:30.451Z,1.17
2022-09-04T18:50:46.232Z,2.30
2022-09-04T18:55:02.400Z,1.33
2022-09-04T19:00:08.964Z,1.40
2022-09-04T19:05:02.158Z,1.40
2022-09-04T19:10:01.999Z,1.48
2022-09-04T19:15:01.826Z,1.40
2022-09-04T19:20:02.731Z,1.55
2022-09-04T19:25:01.793Z,1.60
2022-09-04T19:30:17.529Z,1.90
2022-09-04T19:35:05.268Z,1.50
2022-09-04T19:40:02.066Z,2.08
2022-09-04T19:46:13.884Z,1.05
2022-09-04T19:53:18.472Z,1.48
2022-09-04T19:55:24.889Z,1.60
2022-09-04T20:00:31.044Z,1.35
2022-09-04T20:05:02.175Z,1.20
2022-09-04T20:10:02.079Z,1.70
2022-09-04T20:15:01.907Z,1.15
2022-09-04T20:20:02.750Z,1.63
2022-09-04T20:25:07.227Z,1.27
2022-09-04T20:30:02.030Z,1.45
2022-09-04T20:35:13.285Z,1.40
2022-09-04T20:40:02.089Z,1.60
2022-09-04T20:47:48.047Z,1.50
2022-09-04T20:52:54.181Z,1.52
2022-09-04T20:55:02.388Z,1.70
2022-09-04T21:03:09.097Z,1.70
2022-09-04T21:05:02.168Z,1.80
2022-09-04T21:10:02.856Z,1.42
2022-09-04T21:15:01.790Z,1.92
2022-09-04T21:20:06.558Z,1.60
2022-09-04T21:25:02.476Z,1.65
2022-09-04T21:30:02.292Z,1.70
2022-09-04T21:35:14.938Z,1.80
2022-09-04T21:40:20.237Z,1.70
2022-09-04T21:45:08.414Z,1.63
2022-09-04T21:50:08.127Z,1.42
2022-09-04T21:58:44.030Z,1.80
2022-09-04T22:02:35.693Z,1.70
2022-09-04T22:05:07.661Z,1.58
2022-09-04T22:13:29.103Z,1.65
2022-09-04T22:15:09.523Z,2.00
2022-09-04T22:20:08.259Z,1.77
2022-09-04T22:25:07.963Z,1.88
2022-09-04T22:30:07.659Z,1.75
2022-09-04T22:35:08.360Z,1.77
2022-09-04T22:40:08.198Z,1.60
2022-09-04T22:45:09.896Z,1.95
2022-09-04T22:50:08.011Z,2.05
2022-09-04T22:55:23.361Z,2.38
2022-09-04T23:01:00.510Z,2.08
2022-09-04T23:05:18.201Z,0
2022-09-04T23:13:54.632Z,2.15
2022-09-04T23:15:09.108Z,2.33
2022-09-04T23:26:34.109Z,0
2022-09-04T23:26:37.587Z,2.20
2022-09-04T23:30:08.332Z,2.50
2022-09-04T23:35:14.654Z,2.10
2022-09-04T23:40:08.015Z,2.40
2022-09-04T23:45:07.796Z,2.25
2022-09-04T23:50:08.491Z,2.28
2022-09-04T23:55:08.172Z,2.70
